Time;durP1;ratioP1;P1;durP2;ratioP2;P2;SDS_P1;SDS_P2;PMS_P1;PMS_P2;Temp;Humidity;BMP_temperature;BMP_pressure;BME280_temperature;BME280_humidity;BME280_pressure;Samples;Min_cycle;Max_cycle;Signal;HPM_P1;HPM_P2
2022/06/08 00:00:33;;;;;;;1.38;0.63;;;23.60;49.50;;;;;;5114288;28;20023;-51
2022/06/08 00:03:05;;;;;;;1.20;0.80;;;23.60;49.50;;;;;;5116208;28;20023;-49
2022/06/08 00:05:32;;;;;;;1.10;0.70;;;23.60;49.50;;;;;;5115080;28;20023;-50
2022/06/08 00:07:58;;;;;;;2.05;0.90;;;23.60;49.50;;;;;;5114897;28;20652;-44
2022/06/08 00:10:24;;;;;;;0.95;0.60;;;23.60;49.50;;;;;;5115233;28;20521;-49
2022/06/08 00:12:50;;;;;;;1.20;0.80;;;23.60;49.50;;;;;;5115703;28;20016;-49
2022/06/08 00:15:16;;;;;;;1.65;0.70;;;23.50;49.50;;;;;;5115914;28;20016;-45
2022/06/08 00:17:43;;;;;;;1.17;0.70;;;23.60;49.50;;;;;;5115612;28;20087;-44
2022/06/08 00:20:09;;;;;;;1.42;0.80;;;23.60;49.50;;;;;;5117904;28;20054;-46
2022/06/08 00:22:35;;;;;;;0.75;0.70;;;23.60;49.50;;;;;;5118058;28;20100;-46
2022/06/08 00:25:02;;;;;;;1.15;0.70;;;23.50;49.50;;;;;;5119568;28;20011;-51
2022/06/08 00:27:29;;;;;;;1.23;0.70;;;23.50;49.50;;;;;;5120030;28;20015;-43
2022/06/08 00:29:55;;;;;;;1.17;0.70;;;23.50;49.50;;;;;;5120764;28;20043;-44
2022/06/08 00:32:21;;;;;;;0.68;0.60;;;23.60;49.50;;;;;;5120343;28;20012;-43
2022/06/08 00:34:47;;;;;;;1.73;0.70;;;23.50;49.50;;;;;;5121423;28;20034;-43
2022/06/08 00:37:13;;;;;;;1.08;0.70;;;23.50;49.50;;;;;;5121686;28;20563;-44
2022/06/08 00:39:39;;;;;;;2.10;1.20;;;23.50;49.50;;;;;;5122832;28;20019;-44
2022/06/08 00:42:07;;;;;;;1.42;0.60;;;23.50;49.50;;;;;;5123054;28;20020;-45
2022/06/08 00:44:44;;;;;;;1.15;0.60;;;23.50;49.50;;;;;;5123402;28;20065;-46
2022/06/08 00:47:13;;;;;;;1.25;0.80;;;23.50;49.50;;;;;;5123155;28;20019;-50
2022/06/08 00:49:50;;;;;;;1.80;0.70;;;23.50;49.50;;;;;;5123244;28;20023;-52
2022/06/08 00:52:15;;;;;;;1.52;0.63;;;23.50;49.50;;;;;;5105918;28;20245;-47
2022/06/08 00:54:53;;;;;;;1.42;0.70;;;23.50;49.50;;;;;;5104489;28;20505;-51
2022/06/08 00:57:25;;;;;;;0.85;0.73;;;23.50;49.50;;;;;;5121835;28;20028;-50
2022/06/08 01:00:01;;;;;;;2.03;0.70;;;23.50;49.50;;;;;;5121273;28;20011;-49
2022/06/08 01:02:26;;;;;;;1.85;0.80;;;23.50;49.60;;;;;;5120419;28;20100;-48
2022/06/08 01:05:16;;;;;;;1.27;0.70;;;23.50;49.60;;;;;;5121994;28;20020;-48
2022/06/08 01:07:41;;;;;;;0.70;0.50;;;23.40;49.50;;;;;;5122250;28;20020;-47
2022/06/08 01:10:13;;;;;;;1.30;0.80;;;23.50;49.50;;;;;;5122542;28;20432;-47
2022/06/08 01:12:39;;;;;;;1.08;0.60;;;23.40;49.50;;;;;;5104043;28;20038;-46
2022/06/08 01:15:05;;;;;;;1.73;0.85;;;23.50;49.60;;;;;;5122051;28;20470;-47
2022/06/08 01:17:31;;;;;;;1.92;0.60;;;23.50;49.50;;;;;;5120357;28;20033;-47
2022/06/08 01:19:58;;;;;;;1.40;0.60;;;23.50;49.60;;;;;;5120307;27;20114;-47
2022/06/08 01:22:25;;;;;;;1.40;0.60;;;23.50;49.60;;;;;;5119908;28;20135;-47
2022/06/08 01:24:51;;;;;;;1.10;0.65;;;23.40;49.50;;;;;;5119875;28;20038;-48
2022/06/08 01:27:51;;;;;;;2.05;0.65;;;23.40;49.50;;;;;;5119335;28;20043;-48
2022/06/08 01:30:20;;;;;;;1.33;0.68;;;23.40;49.60;;;;;;5117719;28;20038;-43
2022/06/08 01:33:19;;;;;;;0.57;0.57;;;23.40;49.60;;;;;;5117715;28;20012;-47
2022/06/08 01:36:01;;;;;;;0.90;0.55;;;23.40;49.60;;;;;;5118529;28;20016;-49
2022/06/08 01:38:29;;;;;;;1.20;0.73;;;23.40;49.60;;;;;;5117678;28;20089;-50
2022/06/08 01:41:13;;;;;;;1.15;0.70;;;23.40;49.70;;;;;;5120023;28;20024;-49
2022/06/08 01:43:44;;;;;;;0.98;0.70;;;23.40;49.70;;;;;;5118055;28;20024;-45
2022/06/08 01:46:24;;;;;;;0.90;0.63;;;23.40;49.60;;;;;;5117841;28;20028;-47
2022/06/08 01:49:10;;;;;;;1.30;0.60;;;23.40;49.60;;;;;;5118191;28;20144;-43
2022/06/08 01:51:42;;;;;;;2.88;0.80;;;23.40;49.70;;;;;;5118581;28;20142;-50
2022/06/08 01:54:20;;;;;;;0.70;0.60;;;23.40;49.70;;;;;;5119918;27;20024;-51
2022/06/08 01:56:51;;;;;;;1.23;0.70;;;23.40;49.60;;;;;;5119362;28;20096;-51
2022/06/08 01:59:25;;;;;;;;;;;23.40;49.60;;;;;;5118500;28;20030;-50
2022/06/08 02:01:57;;;;;;;1.10;0.65;;;23.40;49.60;;;;;;5119876;28;19899;-44
2022/06/08 02:04:33;;;;;;;0.70;0.60;;;23.40;49.60;;;;;;5119380;28;20016;-51
2022/06/08 02:07:25;;;;;;;1.45;0.70;;;23.30;49.60;;;;;;5119017;28;20015;-52
2022/06/08 02:10:06;;;;;;;1.38;0.60;;;23.40;49.70;;;;;;5119519;28;20031;-52
2022/06/08 02:12:32;;;;;;;1.58;0.70;;;23.40;49.70;;;;;;5119822;28;20043;-50
2022/06/08 02:15:13;;;;;;;1.63;0.60;;;23.40;49.60;;;;;;5101984;28;20527;-48
2022/06/08 02:17:58;;;;;;;0.60;0.60;;;23.40;49.70;;;;;;5119393;28;20021;-50
2022/06/08 02:20:59;;;;;;;1.17;0.80;;;23.40;49.70;;;;;;5119781;28;20043;-49
2022/06/08 02:23:37;;;;;;;1.05;0.70;;;23.40;49.70;;;;;;5065640;28;20052;-51
2022/06/08 02:26:13;;;;;;;1.55;0.70;;;23.40;49.70;;;;;;5120897;28;20112;-48
2022/06/08 02:28:54;;;;;;;1.95;0.70;;;23.40;49.70;;;;;;5120389;28;20028;-50
2022/06/08 02:31:23;;;;;;;1.55;0.73;;;23.30;49.70;;;;;;5102786;28;20024;-47
2022/06/08 02:36:45;;;;;;;1.08;0.70;;;23.30;49.70;;;;;;5119155;28;20496;-51
2022/06/08 02:39:27;;;;;;;1.20;0.75;;;23.30;49.70;;;;;;5117662;28;20022;-47
2022/06/08 02:41:54;;;;;;;1.30;0.70;;;23.30;49.70;;;;;;5119433;28;20046;-45
2022/06/08 02:44:22;;;;;;;1.55;0.55;;;23.30;50.20;;;;;;5118601;28;20011;-47
2022/06/08 02:46:54;;;;;;;1.20;0.63;;;23.30;49.70;;;;;;5116676;28;20031;-44
2022/06/08 02:49:20;;;;;;;0.63;0.60;;;23.30;49.70;;;;;;5115943;28;20016;-49
2022/06/08 02:51:48;;;;;;;0.82;0.60;;;23.30;49.70;;;;;;5115814;28;20386;-43
2022/06/08 02:54:19;;;;;;;1.83;0.80;;;23.30;49.80;;;;;;5116101;28;20016;-46
2022/06/08 02:56:50;;;;;;;1.38;0.70;;;23.30;49.80;;;;;;5115129;28;20012;-47
2022/06/08 02:59:30;;;;;;;0.88;0.60;;;23.30;49.80;;;;;;5115019;28;20019;-49
2022/06/08 03:02:19;;;;;;;1.67;0.73;;;23.30;49.80;;;;;;5117542;28;20016;-46
2022/06/08 03:04:58;;;;;;;1.10;0.60;;;23.30;49.70;;;;;;5116341;28;20015;-47
2022/06/08 03:07:27;;;;;;;1.10;0.70;;;23.30;49.70;;;;;;5116731;28;20061;-47
2022/06/08 03:09:53;;;;;;;1.80;0.82;;;23.30;49.70;;;;;;5115532;28;20011;-45
2022/06/08 03:12:47;;;;;;;1.15;0.65;;;23.30;49.70;;;;;;5115273;28;20467;-44
2022/06/08 03:15:15;;;;;;;1.08;0.77;;;23.30;49.80;;;;;;5112478;28;20091;-44
2022/06/08 03:17:43;;;;;;;1.80;0.68;;;23.30;49.80;;;;;;5117053;28;20023;-45
2022/06/08 03:20:09;;;;;;;0.98;0.60;;;23.30;49.80;;;;;;5116882;28;20054;-43
2022/06/08 03:22:35;;;;;;;1.45;0.75;;;23.30;49.80;;;;;;5116205;28;20020;-44
2022/06/08 03:25:01;;;;;;;1.88;0.80;;;23.30;49.70;;;;;;5115963;28;20102;-42
2022/06/08 03:27:28;;;;;;;0.85;0.57;;;23.30;49.80;;;;;;5116043;28;20027;-42
2022/06/08 03:29:56;;;;;;;0.68;0.60;;;23.30;49.80;;;;;;5117954;28;20462;-42
2022/06/08 03:32:22;;;;;;;1.80;1.00;;;23.30;49.80;;;;;;5117958;28;20024;-46
2022/06/08 03:34:48;;;;;;;1.17;0.70;;;23.30;49.80;;;;;;5118472;28;20016;-51
2022/06/08 03:37:14;;;;;;;1.27;0.70;;;23.30;49.80;;;;;;5118641;28;20385;-51
2022/06/08 03:39:42;;;;;;;2.55;0.90;;;23.30;49.80;;;;;;5116496;28;20099;-48
2022/06/08 03:42:09;;;;;;;1.05;0.60;;;23.30;49.80;;;;;;5117601;28;20008;-48
2022/06/08 03:44:36;;;;;;;0.95;0.70;;;23.30;49.90;;;;;;5116426;28;20019;-47
2022/06/08 03:47:06;;;;;;;1.95;0.70;;;23.30;49.90;;;;;;5118499;28;20058;-47
2022/06/08 03:49:34;;;;;;;3.22;0.80;;;23.30;49.90;;;;;;5118585;28;20030;-51
2022/06/08 03:52:00;;;;;;;1.80;0.77;;;23.30;49.90;;;;;;5116753;28;20053;-51
2022/06/08 03:54:29;;;;;;;1.58;0.68;;;23.30;50.00;;;;;;5101220;28;20015;-49
2022/06/08 03:56:56;;;;;;;1.08;0.65;;;23.30;49.90;;;;;;5116518;28;20008;-47
2022/06/08 03:59:23;;;;;;;1.70;0.80;;;23.30;49.90;;;;;;5118622;28;20080;-48
2022/06/08 04:01:49;;;;;;;1.88;1.00;;;23.20;49.90;;;;;;5122989;28;20538;-49
2022/06/08 04:04:15;;;;;;;1.13;0.70;;;23.30;50.00;;;;;;5122324;28;20031;-47
2022/06/08 04:06:41;;;;;;;1.42;0.70;;;23.30;50.00;;;;;;5120871;28;20015;-50
2022/06/08 04:09:09;;;;;;;1.33;0.70;;;23.30;50.50;;;;;;5120038;28;20014;-45
2022/06/08 04:11:35;;;;;;;1.25;0.70;;;23.30;50.00;;;;;;5118881;28;20020;-48
2022/06/08 04:14:01;;;;;;;2.38;0.80;;;23.30;49.90;;;;;;5117283;28;20468;-49
2022/06/08 04:16:27;;;;;;;1.25;0.77;;;23.20;49.90;;;;;;5119649;28;20107;-50
2022/06/08 04:18:53;;;;;;;2.00;0.80;;;23.30;50.00;;;;;;5119896;28;20015;-48
2022/06/08 04:21:20;;;;;;;0.95;0.70;;;23.30;50.00;;;;;;5120740;28;20019;-49
2022/06/08 04:23:46;;;;;;;2.08;0.70;;;23.30;50.00;;;;;;5120090;28;20040;-51
2022/06/08 04:26:13;;;;;;;2.80;0.77;;;23.30;49.90;;;;;;5120410;28;20500;-48
2022/06/08 04:28:38;;;;;;;1.27;0.85;;;23.30;49.90;;;;;;5119255;28;20019;-51
2022/06/08 04:31:04;;;;;;;1.00;0.70;;;23.20;49.90;;;;;;5117588;28;20390;-47
2022/06/08 04:33:31;;;;;;;1.00;0.80;;;23.20;50.00;;;;;;5119421;28;20044;-49
2022/06/08 04:35:58;;;;;;;1.92;0.80;;;23.30;50.00;;;;;;5118084;28;20553;-47
2022/06/08 04:38:24;;;;;;;1.85;0.60;;;23.30;50.00;;;;;;5118966;28;20501;-47
2022/06/08 04:40:50;;;;;;;1.52;0.80;;;23.20;50.00;;;;;;5118950;28;20079;-47
2022/06/08 04:43:16;;;;;;;1.58;0.70;;;23.20;50.00;;;;;;5117911;28;20092;-48
2022/06/08 04:45:42;;;;;;;1.15;0.85;;;23.30;50.60;;;;;;5118483;28;20146;-49
2022/06/08 04:48:11;;;;;;;1.30;0.90;;;23.20;50.00;;;;;;5120569;28;20012;-49
2022/06/08 04:50:37;;;;;;;1.95;0.70;;;23.20;50.00;;;;;;5119829;28;20023;-49
2022/06/08 04:53:03;;;;;;;1.02;0.70;;;23.30;50.10;;;;;;5121336;28;20031;-50
2022/06/08 04:55:29;;;;;;;1.88;0.90;;;23.30;50.00;;;;;;5120276;28;20016;-47
2022/06/08 04:57:55;;;;;;;2.70;1.00;;;23.30;50.00;;;;;;5120306;28;20023;-46
2022/06/08 05:00:22;;;;;;;2.20;0.85;;;23.20;50.00;;;;;;5120002;28;20024;-48
2022/06/08 05:02:48;;;;;;;1.38;0.85;;;23.20;50.00;;;;;;5118748;28;20028;-44
2022/06/08 05:05:19;;;;;;;1.45;0.80;;;23.30;50.00;;;;;;5120065;28;20031;-44
2022/06/08 05:07:45;;;;;;;1.20;0.80;;;23.20;50.00;;;;;;5120221;28;20059;-50
2022/06/08 05:10:11;;;;;;;1.00;0.80;;;23.30;50.10;;;;;;5118627;28;20024;-44
2022/06/08 05:12:38;;;;;;;1.70;0.80;;;23.20;50.10;;;;;;5118301;28;20362;-48
2022/06/08 05:15:09;;;;;;;1.27;0.77;;;23.30;50.10;;;;;;5119260;28;20485;-50
2022/06/08 05:17:36;;;;;;;1.85;0.93;;;23.20;50.20;;;;;;5117913;28;20022;-50
2022/06/08 05:20:03;;;;;;;1.67;0.88;;;23.20;50.10;;;;;;5119576;28;20095;-52
2022/06/08 05:22:28;;;;;;;1.75;0.98;;;23.20;50.10;;;;;;5121176;28;20046;-46
2022/06/08 05:24:54;;;;;;;1.80;0.80;;;23.30;50.20;;;;;;5119486;28;20024;-49
2022/06/08 05:27:20;;;;;;;1.65;0.90;;;23.20;50.10;;;;;;5120290;28;20076;-46
2022/06/08 05:29:46;;;;;;;2.42;0.93;;;23.30;50.20;;;;;;5118239;28;20481;-50
2022/06/08 05:32:12;;;;;;;1.75;0.90;;;23.30;50.10;;;;;;5116316;28;20035;-46
2022/06/08 05:34:38;;;;;;;1.17;0.80;;;23.30;50.20;;;;;;5118597;27;20012;-44
2022/06/08 05:37:04;;;;;;;2.78;0.85;;;23.20;50.10;;;;;;5116534;28;20026;-49
2022/06/08 05:39:30;;;;;;;1.00;0.70;;;23.30;50.20;;;;;;5117098;28;20019;-51
2022/06/08 05:41:55;;;;;;;2.92;1.00;;;23.20;50.10;;;;;;5117801;28;20094;-46
2022/06/08 05:44:21;;;;;;;1.95;0.88;;;23.30;50.10;;;;;;5118063;28;20438;-46
2022/06/08 05:46:48;;;;;;;0.95;0.77;;;23.30;50.10;;;;;;5118056;28;20374;-47
2022/06/08 05:49:15;;;;;;;3.05;1.27;;;23.30;50.10;;;;;;5118896;28;20106;-45
2022/06/08 05:51:41;;;;;;;1.20;0.93;;;23.30;50.10;;;;;;5120703;28;20430;-45
2022/06/08 05:54:06;;;;;;;1.65;0.88;;;23.30;50.20;;;;;;5121318;28;20018;-45
2022/06/08 05:56:32;;;;;;;1.45;0.70;;;23.30;50.20;;;;;;5121268;28;20495;-43
2022/06/08 05:58:58;;;;;;;0.80;0.70;;;23.30;50.20;;;;;;5120426;28;20008;-45
2022/06/08 06:01:24;;;;;;;1.25;0.80;;;23.30;50.20;;;;;;5122489;28;20023;-43
2022/06/08 06:03:53;;;;;;;2.25;1.40;;;23.30;50.10;;;;;;5119776;28;20135;-43
2022/06/08 06:06:19;;;;;;;1.05;0.70;;;23.30;50.20;;;;;;5118635;28;20045;-45
2022/06/08 06:08:45;;;;;;;1.00;0.70;;;23.30;50.20;;;;;;5118159;28;20042;-48
2022/06/08 06:11:17;;;;;;;3.25;0.93;;;23.30;50.10;;;;;;5116449;28;20035;-43
2022/06/08 06:13:43;;;;;;;1.95;0.75;;;23.30;50.20;;;;;;5117910;28;20004;-45
2022/06/08 06:16:09;;;;;;;2.42;0.80;;;23.30;50.10;;;;;;5117995;28;20015;-50
2022/06/08 06:18:35;;;;;;;1.95;0.82;;;23.30;50.10;;;;;;5117013;28;20018;-47
2022/06/08 06:21:02;;;;;;;2.30;0.90;;;23.30;50.20;;;;;;5114852;28;20016;-45
2022/06/08 06:23:28;;;;;;;2.10;1.10;;;23.30;50.30;;;;;;5079144;28;20043;-43
2022/06/08 06:25:54;;;;;;;1.83;0.93;;;23.30;50.40;;;;;;5118332;28;20015;-44
2022/06/08 06:28:19;;;;;;;2.85;0.98;;;23.30;50.50;;;;;;5117752;28;20054;-43
2022/06/08 06:30:45;;;;;;;4.97;0.90;;;23.30;50.50;;;;;;5117979;28;20177;-47
2022/06/08 06:33:11;;;;;;;4.47;1.35;;;23.30;50.80;;;;;;5117478;28;20470;-45
2022/06/08 06:35:37;;;;;;;2.45;1.10;;;23.30;50.80;;;;;;5117395;28;20072;-47
2022/06/08 06:38:06;;;;;;;2.63;1.00;;;23.30;50.70;;;;;;5118499;28;20042;-43
2022/06/08 06:40:32;;;;;;;3.85;1.25;;;23.30;50.70;;;;;;5117963;28;20003;-44
2022/06/08 06:42:59;;;;;;;3.30;0.82;;;23.30;50.60;;;;;;5117148;28;20016;-49
2022/06/08 06:45:24;;;;;;;3.03;0.88;;;23.30;50.60;;;;;;5115861;28;20026;-45
2022/06/08 06:47:50;;;;;;;2.50;0.90;;;23.30;50.70;;;;;;5115157;28;20648;-47
2022/06/08 06:50:16;;;;;;;2.95;0.88;;;23.30;50.80;;;;;;5115622;28;20112;-46
2022/06/08 06:52:42;;;;;;;2.40;1.00;;;23.30;50.80;;;;;;5115046;28;20020;-45
2022/06/08 06:55:10;;;;;;;3.05;0.93;;;23.30;50.80;;;;;;5116521;28;20035;-46
2022/06/08 06:57:36;;;;;;;4.45;1.15;;;23.30;50.70;;;;;;5098399;28;20106;-46
2022/06/08 07:00:02;;;;;;;3.97;1.05;;;23.30;50.80;;;;;;5115867;28;20054;-48
2022/06/08 07:02:28;;;;;;;3.60;1.23;;;23.30;50.80;;;;;;5116205;28;20088;-48
2022/06/08 07:04:54;;;;;;;3.42;1.05;;;23.30;50.80;;;;;;5116530;28;20020;-46
2022/06/08 07:07:20;;;;;;;2.22;1.00;;;23.30;51.00;;;;;;5116794;28;20065;-46
2022/06/08 07:09:46;;;;;;;3.25;1.33;;;23.30;51.00;;;;;;5117343;28;20537;-47
2022/06/08 07:12:12;;;;;;;3.20;1.08;;;23.30;51.10;;;;;;5117417;28;20014;-46
2022/06/08 07:14:38;;;;;;;4.00;1.10;;;23.30;51.10;;;;;;5115785;28;20020;-44
2022/06/08 07:17:04;;;;;;;2.17;1.00;;;23.30;51.40;;;;;;5113453;28;20061;-50
2022/06/08 07:19:30;;;;;;;4.00;1.00;;;23.30;51.50;;;;;;5113596;28;20012;-46
2022/06/08 07:21:58;;;;;;;3.55;1.08;;;23.30;51.40;;;;;;5113398;28;20042;-48
2022/06/08 07:24:30;;;;;;;4.05;1.00;;;23.30;51.40;;;;;;5115516;28;20089;-49
2022/06/08 07:26:55;;;;;;;3.95;0.90;;;23.30;51.50;;;;;;5115604;28;20070;-45
2022/06/08 07:29:21;;;;;;;4.75;1.25;;;23.30;51.80;;;;;;5115468;28;20461;-45
2022/06/08 07:31:47;;;;;;;3.55;1.00;;;23.30;51.40;;;;;;5115029;28;20039;-48
2022/06/08 07:34:13;;;;;;;4.03;1.10;;;23.30;51.60;;;;;;5114746;28;20007;-46
2022/06/08 07:36:39;;;;;;;4.95;1.30;;;23.30;51.50;;;;;;5115224;28;20019;-47
2022/06/08 07:39:06;;;;;;;6.25;1.20;;;23.30;51.60;;;;;;5114518;28;20012;-46
2022/06/08 07:41:31;;;;;;;5.72;1.00;;;23.30;51.60;;;;;;5114115;28;20023;-47
2022/06/08 07:44:00;;;;;;;3.30;1.40;;;23.30;51.50;;;;;;5112033;28;20035;-42
2022/06/08 07:46:29;;;;;;;3.15;1.27;;;23.30;51.40;;;;;;5115149;28;20016;-43
2022/06/08 07:51:40;;;;;;;7.20;2.22;;;23.30;51.50;;;;;;5114887;28;20035;-42
2022/06/08 07:54:06;;;;;;;5.82;2.30;;;23.20;51.60;;;;;;5113615;28;20019;-44
2022/06/08 07:56:31;;;;;;;4.25;2.00;;;23.30;51.70;;;;;;5115053;28;20008;-45
2022/06/08 07:58:57;;;;;;;4.38;1.95;;;23.30;51.70;;;;;;5117311;28;20423;-45
2022/06/08 08:01:26;;;;;;;5.88;2.10;;;23.30;51.60;;;;;;5117408;28;20470;-50
2022/06/08 08:03:54;;;;;;;4.07;1.40;;;23.30;51.70;;;;;;5116464;28;20019;-48
2022/06/08 08:06:20;;;;;;;3.97;2.08;;;23.30;51.60;;;;;;5114910;28;20016;-45
2022/06/08 08:08:47;;;;;;;5.88;2.10;;;23.20;51.70;;;;;;5114819;28;20020;-47
2022/06/08 08:11:12;;;;;;;4.15;1.77;;;23.30;52.30;;;;;;5114949;28;20020;-46
2022/06/08 08:13:38;;;;;;;4.22;1.75;;;23.30;52.00;;;;;;5116707;28;20012;-47
2022/06/08 08:16:05;;;;;;;5.75;1.67;;;23.30;51.80;;;;;;5111318;28;20023;-47
2022/06/08 08:18:31;;;;;;;5.65;1.60;;;23.30;52.00;;;;;;5111518;28;20028;-49
2022/06/08 08:20:57;;;;;;;5.95;1.83;;;23.30;52.00;;;;;;5113535;28;20016;-48
2022/06/08 08:23:23;;;;;;;6.57;1.50;;;23.30;52.10;;;;;;5115245;28;20036;-49
2022/06/08 08:25:49;;;;;;;5.82;1.80;;;23.30;51.90;;;;;;5116326;28;20089;-46
2022/06/08 08:28:14;;;;;;;4.88;1.70;;;23.30;52.10;;;;;;5114784;28;20484;-48
2022/06/08 08:30:40;;;;;;;8.10;1.95;;;23.20;52.00;;;;;;5115705;28;20408;-49
2022/06/08 08:33:08;;;;;;;5.70;1.63;;;23.20;52.20;;;;;;5115468;28;20047;-46
2022/06/08 08:35:35;;;;;;;10.13;1.92;;;23.30;52.20;;;;;;5114704;28;20007;-49
2022/06/08 08:38:01;;;;;;;4.85;1.95;;;23.20;52.10;;;;;;5114496;28;20016;-47
2022/06/08 08:40:48;;;;;;;8.32;1.45;;;23.30;52.20;;;;;;5114236;28;20026;-44
2022/06/08 08:43:19;;;;;;;3.38;1.30;;;23.30;52.10;;;;;;5114455;28;20110;-44
2022/06/08 08:46:05;;;;;;;4.43;1.52;;;23.30;52.10;;;;;;5097384;28;20012;-44
2022/06/08 08:49:08;;;;;;;5.50;1.60;;;23.30;52.20;;;;;;5118463;28;20031;-44
2022/06/08 08:51:42;;;;;;;5.60;2.20;;;23.20;52.30;;;;;;5100254;28;20035;-43
2022/06/08 08:54:27;;;;;;;5.78;2.30;;;23.30;52.40;;;;;;5119150;28;20381;-44
2022/06/08 08:57:19;;;;;;;6.68;2.22;;;23.30;52.30;;;;;;5119053;28;20020;-43
2022/06/08 08:59:48;;;;;;;7.38;1.90;;;23.30;52.20;;;;;;5055563;28;20063;-45
2022/06/08 09:05:09;;;;;;;4.72;1.85;;;23.30;52.40;;;;;;5041818;28;20457;-48
2022/06/08 09:07:34;;;;;;;6.57;1.73;;;23.30;52.30;;;;;;5055325;28;20036;-45
2022/06/08 09:10:00;;;;;;;7.53;1.70;;;23.20;52.30;;;;;;5056678;28;20479;-46
2022/06/08 09:12:26;;;;;;;5.80;1.92;;;23.30;52.50;;;;;;5039961;28;20025;-48
2022/06/08 09:14:58;;;;;;;3.47;1.60;;;23.30;52.50;;;;;;5038458;28;20013;-45
2022/06/08 09:17:36;;;;;;;6.38;1.80;;;23.20;52.50;;;;;;5055044;28;20033;-45
2022/06/08 09:20:15;;;;;;;6.82;1.65;;;23.30;52.60;;;;;;5038830;28;20387;-46
2022/06/08 09:22:41;;;;;;;5.38;1.67;;;23.30;52.60;;;;;;5056227;28;20076;-50
2022/06/08 09:25:38;;;;;;;4.78;1.63;;;23.30;52.70;;;;;;5022348;28;20092;-49
2022/06/08 09:28:26;;;;;;;8.55;1.75;;;23.20;53.00;;;;;;4977143;28;20042;-47
2022/06/08 09:30:53;;;;;;;7.47;1.67;;;23.30;53.00;;;;;;4977603;28;20062;-47
2022/06/08 09:33:27;;;;;;;4.70;1.50;;;23.30;52.90;;;;;;4977482;28;20015;-47
2022/06/08 09:35:58;;;;;;;4.35;1.42;;;23.30;52.90;;;;;;4991254;28;20064;-47
2022/06/08 09:38:25;;;;;;;4.95;2.20;;;23.30;52.90;;;;;;5035850;28;20025;-48
2022/06/08 09:41:15;;;;;;;7.55;2.63;;;23.30;52.80;;;;;;5037013;28;20017;-48
2022/06/08 09:43:59;;;;;;;9.52;2.63;;;23.30;52.90;;;;;;5022548;28;20029;-47
2022/06/08 09:53:37;;;;;;;4.30;1.88;;;23.30;53.00;;;;;;5043946;28;20643;-46
2022/06/08 09:56:10;;;;;;;7.82;2.15;;;23.20;53.00;;;;;;5020337;28;20018;-47
2022/06/08 09:58:52;;;;;;;6.15;1.70;;;23.20;53.10;;;;;;5034360;28;20010;-48
2022/06/08 10:01:37;;;;;;;6.30;2.30;;;23.20;53.20;;;;;;5034351;28;20052;-46
2022/06/08 10:04:26;;;;;;;6.28;2.03;;;23.20;53.30;;;;;;5090092;28;20059;-49
2022/06/08 10:06:55;;;;;;;8.80;2.33;;;23.20;53.30;;;;;;5117504;28;20029;-47
2022/06/08 10:09:51;;;;;;;6.45;1.83;;;23.20;53.40;;;;;;5120063;28;20077;-47
2022/06/08 10:12:28;;;;;;;5.40;1.70;;;23.20;53.50;;;;;;5085691;28;20047;-50
2022/06/08 10:15:03;;;;;;;6.85;2.15;;;23.20;53.70;;;;;;5118647;28;20012;-47
2022/06/08 10:17:49;;;;;;;5.90;1.63;;;23.20;53.60;;;;;;5119064;28;20027;-47
2022/06/08 10:20:30;;;;;;;4.55;1.60;;;23.20;53.70;;;;;;5117844;28;20015;-48
2022/06/08 10:22:59;;;;;;;4.40;2.10;;;23.20;53.70;;;;;;5117098;28;20036;-49
2022/06/08 10:25:38;;;;;;;6.28;1.98;;;23.20;53.70;;;;;;5116897;28;20020;-49
2022/06/08 10:28:19;;;;;;;4.95;1.60;;;23.20;53.70;;;;;;5118106;28;20022;-48
2022/06/08 10:31:06;;;;;;;6.05;1.80;;;23.20;53.60;;;;;;5118123;28;20012;-49
2022/06/08 10:34:00;;;;;;;6.15;1.80;;;23.20;53.80;;;;;;5119779;28;20030;-50
2022/06/08 10:36:26;;;;;;;5.10;1.65;;;23.20;53.80;;;;;;5120512;28;20039;-47
2022/06/08 10:38:54;;;;;;;6.75;1.98;;;23.10;53.90;;;;;;5102246;28;20073;-48
2022/06/08 10:44:26;;;;;;;4.45;1.83;;;23.20;54.10;;;;;;5118957;28;20079;-47
2022/06/08 10:46:52;;;;;;;4.90;1.48;;;23.20;54.00;;;;;;5118036;28;20457;-44
2022/06/08 10:49:20;;;;;;;10.38;2.17;;;23.20;54.10;;;;;;5117753;28;20012;-48
2022/06/08 10:52:10;;;;;;;6.60;1.80;;;23.20;54.10;;;;;;5117604;28;20028;-49
2022/06/08 10:54:57;;;;;;;6.82;1.70;;;23.20;54.00;;;;;;5113771;28;20024;-43
2022/06/08 10:57:37;;;;;;;4.10;1.70;;;23.20;54.00;;;;;;5114435;28;20008;-46
2022/06/08 11:00:22;;;;;;;;;;;23.20;53.90;;;;;;5115290;28;20020;-47
2022/06/08 11:03:03;;;;;;;4.60;1.48;;;23.20;53.90;;;;;;5115026;28;19899;-45
2022/06/08 11:05:45;;;;;;;4.97;1.45;;;23.20;54.00;;;;;;5114709;28;20020;-44
2022/06/08 11:08:20;;;;;;;6.18;1.80;;;23.20;54.10;;;;;;5113393;28;20454;-46
2022/06/08 11:10:58;;;;;;;4.88;1.55;;;23.20;54.10;;;;;;5114009;28;20028;-44
2022/06/08 11:13:27;;;;;;;4.50;1.50;;;23.20;54.20;;;;;;5114378;28;20014;-46
2022/06/08 11:15:52;;;;;;;4.50;1.27;;;23.20;54.20;;;;;;5113988;28;20027;-46
2022/06/08 11:18:32;;;;;;;4.57;1.48;;;23.20;54.20;;;;;;5115094;28;20040;-49
2022/06/08 11:21:13;;;;;;;3.90;1.33;;;23.20;54.10;;;;;;5115304;28;20065;-42
2022/06/08 11:23:47;;;;;;;4.32;1.30;;;23.20;54.00;;;;;;5116647;28;20040;-45
2022/06/08 11:26:25;;;;;;;7.82;1.48;;;23.20;54.00;;;;;;5115841;28;20018;-44
2022/06/08 11:28:53;;;;;;;4.95;1.48;;;23.20;54.20;;;;;;5117257;28;20019;-44
2022/06/08 11:31:25;;;;;;;3.25;1.45;;;23.20;54.20;;;;;;5114323;28;20050;-45
2022/06/08 11:34:16;;;;;;;4.30;1.52;;;23.20;54.30;;;;;;5117113;27;20089;-42
2022/06/08 11:37:14;;;;;;;4.47;1.30;;;23.20;54.30;;;;;;5115615;28;20015;-42
2022/06/08 11:39:44;;;;;;;2.97;1.20;;;23.20;54.40;;;;;;5117634;28;20012;-45
2022/06/08 11:42:24;;;;;;;3.45;1.40;;;23.20;54.40;;;;;;5118264;28;20094;-46
2022/06/08 11:45:20;;;;;;;3.58;1.13;;;23.30;54.30;;;;;;5118380;28;20027;-48
2022/06/08 11:47:48;;;;;;;3.00;1.30;;;23.30;54.20;;;;;;5116318;28;20008;-45
2022/06/08 11:50:25;;;;;;;3.83;1.27;;;23.30;54.30;;;;;;5116487;28;20059;-47
2022/06/08 11:53:02;;;;;;;3.55;1.10;;;23.30;54.30;;;;;;5116833;28;20014;-45
2022/06/08 11:55:28;;;;;;;4.30;1.40;;;23.30;54.20;;;;;;5117750;28;20016;-48
2022/06/08 11:58:08;;;;;;;5.47;1.38;;;23.30;54.80;;;;;;5117290;28;20012;-48
2022/06/08 12:00:48;;;;;;;3.95;1.30;;;23.30;54.30;;;;;;5116265;28;20028;-46
2022/06/08 12:03:13;;;;;;;;;;;23.30;54.30;;;;;;5115488;28;20019;-47
2022/06/08 12:05:51;;;;;;;4.68;1.30;;;23.30;54.20;;;;;;5116554;28;19900;-44
2022/06/08 12:08:33;;;;;;;4.13;1.23;;;23.30;54.30;;;;;;5117377;28;20004;-48
2022/06/08 12:11:00;;;;;;;2.88;1.20;;;23.30;54.30;;;;;;5116462;28;20573;-44
2022/06/08 12:13:26;;;;;;;2.67;1.13;;;23.30;54.20;;;;;;5116190;28;20019;-48
2022/06/08 12:15:53;;;;;;;3.13;1.10;;;23.30;54.20;;;;;;5117680;28;20470;-44
2022/06/08 12:18:28;;;;;;;3.08;0.95;;;23.30;54.30;;;;;;5116881;28;20144;-50
2022/06/08 12:21:03;;;;;;;2.88;1.20;;;23.30;54.20;;;;;;5118752;28;20058;-46
2022/06/08 12:23:58;;;;;;;2.17;0.93;;;23.30;54.30;;;;;;5122732;28;20044;-47
2022/06/08 12:26:24;;;;;;;2.95;1.05;;;23.30;54.40;;;;;;5120513;28;20027;-49
2022/06/08 12:29:00;;;;;;;2.20;1.10;;;23.40;54.40;;;;;;5120883;28;20039;-48
2022/06/08 12:31:29;;;;;;;4.22;1.42;;;23.40;54.40;;;;;;5122374;28;20102;-48
2022/06/08 12:33:54;;;;;;;3.80;1.65;;;23.40;54.40;;;;;;5121110;28;20019;-50
2022/06/08 12:36:22;;;;;;;5.35;1.23;;;23.40;54.40;;;;;;5121318;28;20015;-51
2022/06/08 12:39:08;;;;;;;4.00;1.10;;;23.40;54.50;;;;;;5122274;28;20033;-43
2022/06/08 12:41:55;;;;;;;4.40;1.25;;;23.40;54.40;;;;;;5117600;28;20107;-45
2022/06/08 12:44:22;;;;;;;3.60;1.10;;;23.40;54.30;;;;;;5118388;28;20031;-45
2022/06/08 12:46:57;;;;;;;3.28;1.05;;;23.40;54.40;;;;;;5118322;28;20043;-44
2022/06/08 12:49:26;;;;;;;2.67;1.05;;;23.40;54.30;;;;;;5117625;27;20020;-43
2022/06/08 12:51:53;;;;;;;3.60;1.17;;;23.40;54.30;;;;;;5119813;28;20102;-44
2022/06/08 12:54:28;;;;;;;4.43;1.02;;;23.40;54.30;;;;;;5121852;27;20016;-48
2022/06/08 12:57:22;;;;;;;5.28;1.27;;;23.40;54.40;;;;;;5123648;28;20067;-47
2022/06/08 12:59:50;;;;;;;4.15;1.20;;;23.40;54.40;;;;;;5118402;28;20434;-47
2022/06/08 13:02:28;;;;;;;5.28;1.20;;;23.50;54.50;;;;;;5120664;28;20020;-47
2022/06/08 13:04:54;;;;;;;7.03;1.52;;;23.40;54.20;;;;;;5120376;28;20027;-44
2022/06/08 13:07:23;;;;;;;4.82;1.40;;;23.50;54.40;;;;;;5119759;28;20015;-46
2022/06/08 13:09:49;;;;;;;8.10;1.20;;;23.50;54.30;;;;;;5119052;28;20039;-47
2022/06/08 13:12:21;;;;;;;6.90;1.77;;;23.50;54.20;;;;;;5116767;28;20084;-45
2022/06/08 13:14:48;;;;;;;2.88;1.10;;;23.50;54.20;;;;;;5115384;28;20011;-44
2022/06/08 13:17:13;;;;;;;2.97;1.40;;;23.50;54.20;;;;;;5115386;28;20016;-43
2022/06/08 13:19:39;;;;;;;7.03;1.27;;;23.50;54.30;;;;;;5117108;28;20493;-45
2022/06/08 13:22:05;;;;;;;6.07;1.55;;;23.50;54.40;;;;;;5117847;28;20031;-44
2022/06/08 13:24:31;;;;;;;6.85;1.45;;;23.50;54.40;;;;;;5120235;28;20063;-44
2022/06/08 13:26:57;;;;;;;6.30;1.60;;;23.50;54.40;;;;;;5119311;28;20027;-47